SBOSBO BGI / TBPB
Speedbird OnlineSpeedbird Online BGI / TBPB

Sir Grantley Adams International Airport
08:55 26°C

Location Bridgetown, Barbados
Latitude: 13.0746002197
Longitude: -59.4925003052
Web Airport Website | Wikipedia
Altitude 52 Meter / 169 Feet
Distance 6,791 KM / 4,220 Miles
from London.
Time Zone UTC -4 hours (America/Barbados)
Codes IATA: BGI
ICAO: TBPB
Currency £1 equals BBD 2.49
Runways
RunwayLength (m)Surface
093353Asphalt
273353Asphalt
Radio
TypeDescriptionFrequency
APPADAMS APP129.35
ARRADAMS ARR128.85
ATISATIS132.725
DEPADAMS DEP128.85
GNDADAMS GND121.9
TWRADAMS TWR118.7
Live ATC
METAR TBPB 311200Z 07012KT 9999 FEW022 26/20 Q1014 NOSIG
TAF TAF TBPB 311100Z 3112/0112 07010KT 9999 FEW024
Weather As Of 31 Jan 2023 08:55
Description Few clouds
Wind 22 km/h from East (70°)
Cloud Cover 20%
Precipitation Rain: none, Snow: none
Sunrise 06:24
Sunset 17:58
Lounges Airlines Executive Lounge , International terminal
IAM Jet Centre , Separate from main terminal - please see notes below
Rotations During the last 90 days there were
86 flights from LHR
55 flights from LGW
86 flights to LHR
53 flights to LGW



Support Speedbird Online

© 2017-2023 Speedbird Online